createdAt,value
2022-11-21T00:00:02.271Z,16.20
2022-11-21T00:00:46.075Z,14.20
2022-11-21T00:01:29.163Z,17.92
2022-11-21T00:02:10.827Z,16.67
2022-11-21T00:02:52.722Z,16.50
2022-11-21T00:03:36.557Z,14.23
2022-11-21T00:04:18.198Z,13.00
2022-11-21T00:04:59.860Z,15.68
2022-11-21T00:05:46.063Z,12.50
2022-11-21T00:06:27.779Z,18.27
2022-11-21T00:07:09.471Z,18.52
2022-11-21T00:07:51.132Z,15.85
2022-11-21T00:08:32.772Z,17.90
2022-11-21T00:09:14.444Z,16.67
2022-11-21T00:09:56.081Z,18.38
2022-11-21T00:10:39.104Z,16.50
2022-11-21T00:11:20.731Z,14.23
2022-11-21T00:12:02.397Z,16.85
2022-11-21T00:12:44.071Z,15.35
2022-11-21T00:13:25.822Z,12.90
2022-11-21T00:14:07.468Z,18.33
2022-11-21T00:14:49.145Z,16.92
2022-11-21T00:15:31.752Z,13.00
2022-11-21T00:16:15.695Z,12.63
2022-11-21T00:16:57.701Z,17.92
2022-11-21T00:17:39.557Z,19.55
2022-11-21T00:18:21.187Z,14.70
2022-11-21T00:19:02.855Z,16.17
2022-11-21T00:19:44.558Z,15.13
2022-11-21T00:20:26.324Z,15.38
2022-11-21T00:21:16.932Z,11.30
2022-11-21T00:21:58.594Z,16.85
2022-11-21T00:22:40.221Z,18.67
2022-11-21T00:23:21.897Z,17.83
2022-11-21T00:24:03.815Z,14.95
2022-11-21T00:24:45.435Z,15.02
2022-11-21T00:25:27.056Z,10.93
2022-11-21T00:26:10.281Z,15.27
2022-11-21T00:26:51.936Z,16.08
2022-11-21T00:27:33.608Z,12.50
2022-11-21T00:28:15.279Z,11.48
2022-11-21T00:28:56.923Z,16.65
2022-11-21T00:29:38.644Z,18.30
2022-11-21T00:30:20.368Z,12.82
2022-11-21T00:31:02.495Z,15.15
2022-11-21T00:31:44.136Z,17.55
2022-11-21T00:32:25.787Z,16.13
2022-11-21T00:33:07.438Z,14.85
2022-11-21T00:33:49.118Z,13.85
2022-11-21T00:34:30.831Z,13.45
2022-11-21T00:35:13.240Z,12.90
2022-11-21T00:35:54.904Z,16.20
2022-11-21T00:36:36.574Z,17.55
2022-11-21T00:37:18.279Z,14.15
2022-11-21T00:37:59.929Z,16.60
2022-11-21T00:38:41.627Z,15.20
2022-11-21T00:39:23.253Z,15.20
2022-11-21T00:40:05.716Z,16.70
2022-11-21T00:40:47.356Z,17.33
2022-11-21T00:41:29.038Z,15.43
2022-11-21T00:42:10.788Z,13.15
2022-11-21T00:42:52.409Z,15.57
2022-11-21T00:43:34.321Z,13.75
2022-11-21T00:44:16.002Z,12.75
2022-11-21T00:44:57.676Z,15.13
2022-11-21T00:45:40.079Z,17.33
2022-11-21T00:46:21.716Z,14.45
2022-11-21T00:47:03.369Z,17.63
2022-11-21T00:47:45.011Z,13.38
2022-11-21T00:48:26.641Z,12.40
2022-11-21T00:49:08.374Z,12.18
2022-11-21T00:49:50.128Z,18.10
2022-11-21T00:50:31.807Z,14.50
2022-11-21T00:51:13.454Z,11.50
2022-11-21T00:51:55.097Z,11.18
2022-11-21T00:52:36.760Z,12.80
2022-11-21T00:53:18.391Z,13.60
2022-11-21T00:54:00.035Z,15.50
2022-11-21T00:54:41.680Z,14.25
2022-11-21T00:55:24.174Z,15.38
2022-11-21T00:56:05.825Z,13.32
2022-11-21T00:56:47.449Z,17.23
2022-11-21T00:57:29.067Z,12.13
2022-11-21T00:58:10.707Z,17.10
2022-11-21T00:58:52.395Z,15.40
2022-11-21T00:59:34.128Z,16.27
2022-11-21T01:00:16.341Z,20.75
2022-11-21T01:01:06.334Z,19.65
2022-11-21T01:01:48.045Z,17.65
2022-11-21T01:02:31.595Z,14.65
2022-11-21T01:03:13.239Z,15.73
2022-11-21T01:03:54.889Z,15.65
2022-11-21T01:04:36.549Z,14.90
2022-11-21T01:05:18.289Z,15.60
2022-11-21T01:06:08.170Z,11.30
2022-11-21T01:06:49.777Z,15.30
2022-11-21T01:07:31.457Z,16.98
2022-11-21T01:08:13.124Z,11.60
2022-11-21T01:08:54.795Z,14.55
2022-11-21T01:09:36.477Z,17.90
2022-11-21T01:10:18.263Z,15.63
2022-11-21T01:11:03.980Z,17.27
2022-11-21T01:11:45.636Z,20.33
2022-11-21T01:12:27.294Z,13.85
2022-11-21T01:13:08.936Z,16.88
2022-11-21T01:13:53.885Z,17.80
2022-11-21T01:14:38.376Z,17.65
2022-11-21T01:15:19.999Z,17.10
2022-11-21T01:16:05.888Z,13.40
2022-11-21T01:16:47.653Z,13.77
2022-11-21T01:17:31.718Z,11.35
2022-11-21T01:18:15.442Z,17.63
2022-11-21T01:18:58.105Z,16.08
2022-11-21T01:19:42.905Z,11.95
2022-11-21T01:20:24.599Z,10.98
2022-11-21T01:21:18.317Z,12.73
2022-11-21T01:21:59.958Z,14.60
2022-11-21T01:22:41.667Z,10.38
2022-11-21T01:23:23.304Z,11.73
2022-11-21T01:24:05.103Z,12.57
2022-11-21T01:24:47.092Z,11.55
2022-11-21T01:25:28.715Z,11.38
2022-11-21T01:26:13.388Z,11.07
2022-11-21T01:26:55.255Z,11.32
2022-11-21T01:27:36.948Z,18.55
2022-11-21T01:28:18.608Z,18.45
2022-11-21T01:29:02.996Z,15.82
2022-11-21T01:29:44.674Z,15.00
2022-11-21T01:30:28.130Z,13.00
2022-11-21T01:31:11.328Z,13.07
2022-11-21T01:31:54.242Z,14.05
2022-11-21T01:32:38.466Z,14.23
2022-11-21T01:33:20.096Z,15.43
2022-11-21T01:34:02.159Z,11.80
2022-11-21T01:34:43.828Z,19.67
2022-11-21T01:35:25.779Z,19.75
2022-11-21T01:36:19.989Z,12.75
2022-11-21T01:37:02.373Z,15.57
2022-11-21T01:37:47.541Z,14.90
2022-11-21T01:38:29.191Z,15.95
2022-11-21T01:39:11.721Z,15.07
2022-11-21T01:39:53.439Z,16.85
2022-11-21T01:40:39.869Z,15.82
2022-11-21T01:41:24.454Z,15.05
2022-11-21T01:42:06.187Z,12.52
2022-11-21T01:43:00.157Z,14.20
2022-11-21T01:43:42.179Z,18.83
2022-11-21T01:44:46.164Z,14.27
2022-11-21T01:45:52.887Z,13.52
2022-11-21T01:46:34.551Z,18.65
2022-11-21T01:47:19.321Z,14.05
2022-11-21T01:48:00.976Z,15.35
2022-11-21T01:49:00.472Z,14.18
2022-11-21T01:49:43.028Z,12.27
2022-11-21T01:50:24.699Z,14.85
2022-11-21T01:51:09.752Z,16.38
2022-11-21T01:52:02.471Z,13.35
2022-11-21T01:52:44.159Z,12.27
2022-11-21T01:53:26.031Z,17.52
2022-11-21T01:54:20.464Z,16.65
2022-11-21T01:55:09.867Z,16.88
2022-11-21T01:55:52.192Z,18.50
2022-11-21T01:56:49.564Z,15.43
2022-11-21T01:57:40.246Z,11.07
2022-11-21T01:58:23.670Z,14.38
2022-11-21T01:59:08.391Z,17.17
2022-11-21T02:00:02.228Z,15.10
2022-11-21T02:00:48.941Z,14.80
2022-11-21T02:01:32.075Z,11.32
2022-11-21T02:02:17.265Z,13.30
2022-11-21T02:03:05.780Z,11.30
2022-11-21T02:03:51.197Z,13.45
2022-11-21T02:04:34.465Z,16.90
2022-11-21T02:05:25.167Z,12.23
2022-11-21T02:06:09.818Z,17.58
2022-11-21T02:06:51.575Z,14.57
2022-11-21T02:07:36.698Z,14.15
2022-11-21T02:08:20.464Z,12.80
2022-11-21T02:09:04.796Z,13.00
2022-11-21T02:09:51.935Z,16.70
2022-11-21T02:10:36.495Z,17.92
2022-11-21T02:11:29.703Z,14.10
2022-11-21T02:12:34.479Z,14.18
2022-11-21T02:13:16.953Z,12.88
2022-11-21T02:13:59.965Z,14.07
2022-11-21T02:14:44.347Z,14.23
2022-11-21T02:15:28.434Z,10.50
2022-11-21T02:16:10.327Z,13.70
2022-11-21T02:16:53.825Z,13.88
2022-11-21T02:17:35.480Z,8.15
2022-11-21T02:18:17.140Z,11.05
2022-11-21T02:18:58.825Z,13.38
2022-11-21T02:19:56.023Z,9.88
2022-11-21T02:20:40.228Z,13.85
2022-11-21T02:21:49.329Z,11.77
2022-11-21T02:22:44.845Z,11.50
2022-11-21T02:23:44.776Z,9.68
2022-11-21T02:24:39.660Z,16.60
2022-11-21T02:25:27.763Z,10.63
2022-11-21T02:26:10.389Z,9.02
2022-11-21T02:26:52.069Z,9.30
2022-11-21T02:27:34.439Z,8.43
2022-11-21T02:28:19.178Z,11.90
2022-11-21T02:29:00.902Z,11.38
2022-11-21T02:29:43.386Z,11.13
2022-11-21T02:30:27.707Z,10.35
2022-11-21T02:31:09.475Z,9.43
2022-11-21T02:31:53.992Z,8.80
2022-11-21T02:32:39.236Z,9.05
2022-11-21T02:33:21.531Z,8.68
2022-11-21T02:34:08.984Z,9.32
2022-11-21T02:34:50.659Z,10.45
2022-11-21T02:35:33.828Z,11.75
2022-11-21T02:36:45.397Z,9.45
2022-11-21T02:37:27.276Z,9.15
2022-11-21T02:38:22.389Z,11.93
2022-11-21T02:39:06.813Z,12.57
2022-11-21T02:39:49.605Z,12.10
2022-11-21T02:40:37.368Z,10.73
2022-11-21T02:41:26.492Z,11.10
2022-11-21T02:42:16.743Z,8.57
2022-11-21T02:43:08.695Z,9.02
2022-11-21T02:43:59.400Z,8.75
2022-11-21T02:44:56.932Z,9.77
2022-11-21T02:45:41.550Z,9.68
2022-11-21T02:46:23.219Z,5.85
2022-11-21T02:47:04.882Z,9.07
2022-11-21T02:47:50.446Z,11.13
2022-11-21T02:48:32.191Z,9.90
2022-11-21T02:49:14.678Z,13.50
2022-11-21T02:50:13.492Z,12.77
2022-11-21T02:50:55.200Z,10.98
2022-11-21T02:51:36.830Z,9.73
2022-11-21T02:52:18.489Z,9.77
2022-11-21T02:53:05.507Z,10.75
2022-11-21T02:53:47.207Z,8.70
2022-11-21T02:54:29.326Z,10.38
2022-11-21T02:55:15.652Z,12.38
2022-11-21T02:55:57.307Z,10.77
2022-11-21T02:56:39.155Z,10.10
2022-11-21T02:57:21.071Z,8.90
2022-11-21T02:58:05.144Z,10.45
2022-11-21T02:58:47.008Z,7.82
2022-11-21T02:59:30.245Z,10.90
2022-11-21T03:00:12.455Z,11.77
2022-11-21T03:00:55.389Z,11.70
2022-11-21T03:01:37.150Z,9.38
2022-11-21T03:02:18.823Z,9.50
2022-11-21T03:03:01.731Z,9.90
2022-11-21T03:03:43.361Z,10.82
2022-11-21T03:04:25.834Z,10.23
2022-11-21T03:05:09.792Z,12.65
2022-11-21T03:05:51.534Z,16.13
2022-11-21T03:06:33.211Z,10.32
2022-11-21T03:07:14.938Z,7.80
2022-11-21T03:07:56.789Z,11.43
2022-11-21T03:08:38.447Z,12.68
2022-11-21T03:09:20.160Z,10.60
2022-11-21T03:10:02.116Z,12.88
2022-11-21T03:10:43.831Z,10.20
2022-11-21T03:11:25.445Z,7.22
2022-11-21T03:12:08.759Z,11.18
2022-11-21T03:12:50.399Z,9.02
2022-11-21T03:13:32.044Z,11.60
2022-11-21T03:14:13.749Z,9.27
2022-11-21T03:14:55.412Z,9.82
2022-11-21T03:15:37.033Z,11.95
2022-11-21T03:16:18.666Z,11.95
2022-11-21T03:17:00.286Z,10.40
2022-11-21T03:17:42.715Z,11.98
2022-11-21T03:18:24.360Z,10.90
2022-11-21T03:19:08.307Z,10.60
2022-11-21T03:19:49.991Z,10.20
2022-11-21T03:20:34.340Z,7.53
2022-11-21T03:21:15.960Z,10.32
2022-11-21T03:21:57.604Z,13.40
2022-11-21T03:22:39.265Z,10.65
2022-11-21T03:23:21.009Z,8.43
2022-11-21T03:24:02.672Z,7.78
2022-11-21T03:24:44.292Z,10.95
2022-11-21T03:25:26.032Z,11.55
2022-11-21T03:26:07.658Z,9.95
2022-11-21T03:26:49.304Z,10.55
2022-11-21T03:27:30.986Z,9.93
2022-11-21T03:28:12.654Z,7.82
2022-11-21T03:28:54.305Z,9.25
2022-11-21T03:29:35.931Z,11.65
2022-11-21T03:30:17.785Z,9.33
2022-11-21T03:30:59.418Z,10.65
2022-11-21T03:31:41.125Z,9.77
2022-11-21T03:32:22.783Z,9.43
2022-11-21T03:33:04.462Z,10.38
2022-11-21T03:33:46.086Z,11.73
2022-11-21T03:34:27.965Z,12.13
2022-11-21T03:35:10.022Z,12.45
2022-11-21T03:35:51.672Z,9.30
2022-11-21T03:36:33.437Z,14.68
2022-11-21T03:37:15.063Z,16.15
2022-11-21T03:37:56.707Z,9.90
2022-11-21T03:38:38.349Z,10.50
2022-11-21T03:39:20.053Z,11.57
2022-11-21T03:40:01.727Z,10.68
2022-11-21T03:40:43.357Z,11.48
2022-11-21T03:41:29.322Z,10.32
2022-11-21T03:42:10.990Z,7.85
2022-11-21T03:42:52.639Z,9.88
2022-11-21T03:43:34.292Z,8.23
2022-11-21T03:44:16.273Z,12.30
2022-11-21T03:44:57.913Z,9.57
2022-11-21T03:45:39.720Z,11.77
2022-11-21T03:46:21.429Z,12.07
2022-11-21T03:47:03.088Z,9.95
2022-11-21T03:47:44.713Z,8.18
2022-11-21T03:48:26.336Z,8.10
2022-11-21T03:49:08.714Z,8.75
2022-11-21T03:49:50.344Z,9.05
2022-11-21T03:50:31.974Z,7.38
2022-11-21T03:51:13.624Z,10.43
2022-11-21T03:51:55.273Z,10.60
2022-11-21T03:52:36.900Z,9.25
2022-11-21T03:53:18.522Z,13.05
2022-11-21T03:54:00.164Z,11.18
2022-11-21T03:54:41.819Z,11.55
2022-11-21T03:55:23.465Z,9.10
2022-11-21T03:56:05.281Z,11.10
2022-11-21T03:56:46.991Z,11.07
2022-11-21T03:57:28.676Z,11.30
2022-11-21T03:58:10.361Z,10.25
2022-11-21T03:58:52.723Z,10.23
2022-11-21T03:59:34.396Z,11.30
2022-11-21T04:00:16.675Z,9.88
2022-11-21T04:00:58.364Z,8.35
2022-11-21T04:01:40.089Z,9.38
2022-11-21T04:02:21.775Z,11.20
2022-11-21T04:03:03.709Z,10.90
2022-11-21T04:03:45.793Z,9.52
2022-11-21T04:04:27.695Z,11.35
2022-11-21T04:05:09.671Z,10.45
2022-11-21T04:05:51.305Z,8.43
2022-11-21T04:06:33.003Z,11.35
2022-11-21T04:07:14.735Z,9.35
2022-11-21T04:07:56.492Z,6.78
2022-11-21T04:08:38.679Z,7.70
2022-11-21T04:09:20.361Z,8.60
2022-11-21T04:10:02.039Z,12.68
2022-11-21T04:10:48.057Z,15.23
2022-11-21T04:11:29.752Z,11.18
2022-11-21T04:12:11.474Z,10.02
2022-11-21T04:12:53.135Z,7.97
2022-11-21T04:13:35.284Z,11.70
2022-11-21T04:14:16.935Z,8.85
2022-11-21T04:14:58.547Z,8.68
2022-11-21T04:15:43.657Z,12.05
2022-11-21T04:16:25.356Z,9.43
2022-11-21T04:17:07.018Z,11.30
2022-11-21T04:17:48.659Z,10.98
2022-11-21T04:18:30.404Z,9.40
2022-11-21T04:19:12.041Z,10.52
2022-11-21T04:19:53.723Z,11.13
2022-11-21T04:20:35.464Z,12.57
2022-11-21T04:21:17.180Z,11.20
2022-11-21T04:21:58.837Z,9.50
2022-11-21T04:22:40.648Z,8.65
2022-11-21T04:23:22.338Z,10.65
2022-11-21T04:24:04.237Z,11.88
2022-11-21T04:24:45.912Z,9.63
2022-11-21T04:25:27.693Z,10.60
2022-11-21T04:26:09.464Z,9.10
2022-11-21T04:26:51.132Z,11.20
2022-11-21T04:27:32.763Z,9.35
2022-11-21T04:28:14.991Z,9.02
2022-11-21T04:28:57.775Z,8.27
2022-11-21T04:29:39.457Z,10.80
2022-11-21T04:30:21.140Z,9.98
2022-11-21T04:31:10.810Z,12.70
2022-11-21T04:31:53.021Z,11.35
2022-11-21T04:32:34.654Z,10.77
2022-11-21T04:33:19.365Z,11.70
2022-11-21T04:34:01.101Z,12.45
2022-11-21T04:34:45.891Z,8.50
2022-11-21T04:35:27.870Z,11.07
2022-11-21T04:36:10.087Z,12.35
2022-11-21T04:36:51.746Z,13.88
2022-11-21T04:37:33.527Z,9.77
2022-11-21T04:38:15.327Z,11.10
2022-11-21T04:38:57.044Z,11.05
2022-11-21T04:39:38.681Z,14.65
2022-11-21T04:40:20.371Z,15.10
2022-11-21T04:41:02.014Z,11.85
2022-11-21T04:41:43.654Z,11.27
2022-11-21T04:42:25.304Z,11.38
2022-11-21T04:43:07.095Z,8.52
2022-11-21T04:43:48.828Z,11.60
2022-11-21T04:44:30.648Z,10.90
2022-11-21T04:45:13.667Z,10.57
2022-11-21T04:45:55.325Z,12.73
2022-11-21T04:46:39.085Z,13.98
2022-11-21T04:47:20.745Z,13.15
2022-11-21T04:48:02.410Z,8.55
2022-11-21T04:48:44.034Z,9.23
2022-11-21T04:49:25.928Z,9.27
2022-11-21T04:50:08.609Z,11.13
2022-11-21T04:50:56.543Z,12.02
2022-11-21T04:51:38.190Z,11.43
2022-11-21T04:52:19.944Z,13.68
2022-11-21T04:53:01.607Z,11.07
2022-11-21T04:53:43.521Z,13.60
2022-11-21T04:54:25.410Z,13.00
2022-11-21T04:55:08.112Z,11.35
2022-11-21T04:55:49.756Z,9.68
2022-11-21T04:56:31.401Z,10.95
2022-11-21T04:57:13.132Z,10.90
2022-11-21T04:57:54.772Z,10.13
2022-11-21T04:58:36.486Z,12.48
2022-11-21T04:59:18.149Z,12.48
2022-11-21T04:59:59.877Z,15.82
2022-11-21T05:00:41.577Z,16.13
2022-11-21T05:01:23.258Z,10.43
2022-11-21T05:02:04.960Z,11.85
2022-11-21T05:02:47.027Z,9.75
2022-11-21T05:03:28.687Z,12.43
2022-11-21T05:04:10.383Z,12.48
2022-11-21T05:04:52.061Z,13.65
2022-11-21T05:05:33.986Z,12.02
2022-11-21T05:06:15.638Z,13.25
2022-11-21T05:06:57.269Z,12.65
2022-11-21T05:07:39.189Z,10.25
2022-11-21T05:08:20.892Z,9.50
2022-11-21T05:09:02.538Z,13.60
2022-11-21T05:09:44.548Z,14.95
2022-11-21T05:10:26.226Z,11.32
2022-11-21T05:11:26.412Z,11.63
2022-11-21T05:12:30.122Z,12.75
2022-11-21T05:13:21.024Z,18.58
2022-11-21T05:14:02.711Z,18.95
2022-11-21T05:14:44.372Z,13.63
2022-11-21T05:15:26.063Z,12.48
2022-11-21T05:16:10.652Z,10.95
2022-11-21T05:16:53.203Z,12.73
2022-11-21T05:17:34.899Z,11.45
2022-11-21T05:18:16.536Z,11.27
2022-11-21T05:19:00.531Z,12.18
2022-11-21T05:19:42.248Z,14.90
2022-11-21T05:20:23.910Z,11.88
2022-11-21T05:21:05.599Z,13.60
2022-11-21T05:21:47.270Z,14.17
2022-11-21T05:22:28.964Z,13.07
2022-11-21T05:23:10.621Z,14.45
2022-11-21T05:23:52.276Z,11.70
2022-11-21T05:24:34.057Z,11.80
2022-11-21T05:25:15.729Z,16.25
2022-11-21T05:25:57.514Z,16.73
2022-11-21T05:26:42.275Z,13.10
2022-11-21T05:27:23.928Z,12.60
2022-11-21T05:28:08.313Z,11.30
2022-11-21T05:28:49.994Z,13.00
2022-11-21T05:29:31.846Z,14.05
2022-11-21T05:30:13.713Z,16.33
2022-11-21T05:30:55.346Z,15.10
2022-11-21T05:31:37.069Z,13.48
2022-11-21T05:32:18.930Z,11.35
2022-11-21T05:33:00.668Z,13.47
2022-11-21T05:33:42.296Z,12.50
2022-11-21T05:34:23.954Z,13.20
2022-11-21T05:35:05.953Z,12.35
2022-11-21T05:35:48.543Z,11.68
2022-11-21T05:36:30.358Z,13.18
2022-11-21T05:37:12.037Z,13.27
2022-11-21T05:37:57.592Z,16.02
2022-11-21T05:38:42.249Z,11.40
2022-11-21T05:39:24.387Z,14.30
2022-11-21T05:40:06.895Z,14.77
2022-11-21T05:40:48.563Z,12.73
2022-11-21T05:41:30.439Z,12.05
2022-11-21T05:42:12.149Z,12.65
2022-11-21T05:43:12.028Z,14.63
2022-11-21T05:43:53.789Z,13.57
2022-11-21T05:44:35.447Z,13.30
2022-11-21T05:45:17.165Z,14.60
2022-11-21T05:46:01.675Z,14.20
2022-11-21T05:46:43.700Z,12.38
2022-11-21T05:47:25.340Z,12.45
2022-11-21T05:48:10.135Z,13.77
2022-11-21T05:48:53.109Z,12.30
2022-11-21T05:49:34.804Z,13.68
2022-11-21T05:50:16.838Z,10.15
2022-11-21T05:50:58.544Z,11.38
2022-11-21T05:51:40.331Z,12.90
2022-11-21T05:52:22.034Z,12.90
2022-11-21T05:53:06.642Z,15.55
2022-11-21T05:53:48.971Z,14.07
2022-11-21T05:54:30.863Z,15.88
2022-11-21T05:55:12.683Z,15.38
2022-11-21T05:55:54.364Z,14.00
2022-11-21T05:56:36.006Z,13.73
2022-11-21T05:57:17.697Z,13.73
2022-11-21T05:58:00.597Z,11.07
2022-11-21T05:58:42.668Z,11.65
2022-11-21T05:59:24.416Z,12.75
2022-11-21T06:00:06.664Z,12.57
2022-11-21T06:00:48.313Z,10.77
2022-11-21T06:01:48.592Z,13.73
2022-11-21T06:02:50.332Z,12.77
2022-11-21T06:03:35.065Z,12.07
2022-11-21T06:04:16.828Z,12.73
2022-11-21T06:04:58.486Z,12.55
2022-11-21T06:05:40.182Z,12.20
2022-11-21T06:06:24.799Z,15.73
2022-11-21T06:07:06.934Z,16.60
2022-11-21T06:07:48.609Z,14.85
2022-11-21T06:08:34.295Z,14.48
2022-11-21T06:09:16.013Z,16.23
2022-11-21T06:09:57.632Z,17.20
2022-11-21T06:10:39.348Z,19.40
2022-11-21T06:11:21.015Z,12.55
2022-11-21T06:12:02.735Z,11.07
2022-11-21T06:12:44.400Z,14.90
2022-11-21T06:13:26.817Z,16.48
2022-11-21T06:14:08.473Z,13.10
2022-11-21T06:14:50.206Z,14.95
2022-11-21T06:15:31.888Z,15.13
2022-11-21T06:16:15.772Z,17.08
2022-11-21T06:16:57.444Z,18.25
2022-11-21T06:17:39.124Z,15.48
2022-11-21T06:18:21.249Z,12.48
2022-11-21T06:19:02.931Z,14.45
2022-11-21T06:19:45.800Z,16.52
2022-11-21T06:20:27.490Z,13.80
2022-11-21T06:21:17.622Z,18.98
2022-11-21T06:21:59.388Z,15.77
2022-11-21T06:22:41.053Z,13.60
2022-11-21T06:23:22.735Z,14.02
2022-11-21T06:24:05.584Z,15.48
2022-11-21T06:24:47.244Z,13.82
2022-11-21T06:25:28.911Z,14.43
2022-11-21T06:26:18.954Z,13.68
2022-11-21T06:27:00.589Z,13.85
2022-11-21T06:27:42.252Z,14.25
2022-11-21T06:28:24.326Z,13.13
2022-11-21T06:29:06.004Z,13.45
2022-11-21T06:29:47.665Z,13.00
2022-11-21T06:30:29.339Z,15.52
2022-11-21T06:31:19.239Z,16.90
2022-11-21T06:32:00.991Z,16.92
2022-11-21T06:32:42.661Z,14.25
2022-11-21T06:33:24.424Z,12.43
2022-11-21T06:34:06.095Z,10.18
2022-11-21T06:34:47.776Z,11.30
2022-11-21T06:35:29.588Z,15.20
2022-11-21T06:36:16.883Z,19.73
2022-11-21T06:36:58.545Z,11.40
2022-11-21T06:37:40.231Z,13.45
2022-11-21T06:38:21.903Z,10.57
2022-11-21T06:39:03.757Z,13.10
2022-11-21T06:39:45.435Z,13.82
2022-11-21T06:40:27.152Z,13.48
2022-11-21T06:41:13.727Z,13.73
2022-11-21T06:41:55.464Z,12.90
2022-11-21T06:42:37.761Z,13.05
2022-11-21T06:43:19.419Z,13.55
2022-11-21T06:44:04.098Z,11.75
2022-11-21T06:44:45.761Z,13.05
2022-11-21T06:45:27.535Z,11.80
2022-11-21T06:46:09.887Z,11.68
2022-11-21T06:46:51.888Z,10.48
2022-11-21T06:47:36.574Z,12.02
2022-11-21T06:48:18.435Z,12.90
2022-11-21T06:49:00.128Z,15.00
2022-11-21T06:49:41.831Z,11.75
2022-11-21T06:50:23.542Z,10.82
2022-11-21T06:51:21.149Z,13.88
2022-11-21T06:52:02.836Z,9.98
2022-11-21T06:52:44.504Z,10.13
2022-11-21T06:53:26.160Z,8.43
2022-11-21T06:54:07.821Z,10.63
2022-11-21T06:54:49.475Z,10.45
2022-11-21T06:55:31.478Z,9.73
2022-11-21T06:56:14.399Z,11.10
2022-11-21T06:56:56.060Z,10.55
2022-11-21T06:57:37.818Z,9.63
2022-11-21T06:58:19.595Z,11.25
2022-11-21T06:59:01.335Z,15.57
2022-11-21T06:59:43.064Z,14.15
2022-11-21T07:00:25.536Z,11.32
2022-11-21T07:01:09.474Z,11.07
2022-11-21T07:01:51.274Z,10.95
2022-11-21T07:02:33.103Z,10.43
2022-11-21T07:03:15.771Z,11.52
2022-11-21T07:03:57.479Z,10.30
2022-11-21T07:04:39.292Z,10.52
2022-11-21T07:05:20.987Z,8.80
2022-11-21T07:06:03.855Z,12.98
2022-11-21T07:06:45.513Z,15.93
2022-11-21T07:07:27.192Z,13.33
2022-11-21T07:08:13.119Z,11.48
2022-11-21T07:09:25.407Z,10.13
2022-11-21T07:09:59.457Z,12.65
2022-11-21T07:10:57.366Z,10.20
2022-11-21T07:11:43.969Z,13.85
2022-11-21T07:12:44.356Z,12.30
2022-11-21T07:13:26.082Z,13.43
2022-11-21T07:14:09.327Z,9.73
2022-11-21T07:14:51.232Z,11.77
2022-11-21T07:15:33.057Z,11.35
2022-11-21T07:16:14.770Z,10.00
2022-11-21T07:16:56.389Z,10.27
2022-11-21T07:17:38.080Z,8.68
2022-11-21T07:18:21.294Z,10.57
2022-11-21T07:19:03.053Z,11.02
2022-11-21T07:19:44.736Z,10.70
2022-11-21T07:20:28.385Z,9.48
2022-11-21T07:21:10.337Z,10.23
2022-11-21T07:21:51.991Z,10.70
2022-11-21T07:22:33.679Z,11.15
2022-11-21T07:23:15.566Z,9.55
2022-11-21T07:23:57.298Z,11.70
2022-11-21T07:24:38.996Z,12.70
2022-11-21T07:25:20.788Z,10.52
2022-11-21T07:26:04.671Z,10.07
2022-11-21T07:26:46.311Z,11.20
2022-11-21T07:27:28.139Z,8.25
2022-11-21T07:28:10.733Z,12.25
2022-11-21T07:28:52.375Z,13.73
2022-11-21T07:29:34.047Z,10.85
2022-11-21T07:30:15.858Z,9.95
2022-11-21T07:30:58.358Z,13.77
2022-11-21T07:31:39.997Z,12.93
2022-11-21T07:32:21.621Z,9.75
2022-11-21T07:33:06.698Z,10.43
2022-11-21T07:33:48.378Z,15.10
2022-11-21T07:34:30.019Z,8.82
2022-11-21T07:35:11.791Z,11.38
2022-11-21T07:35:55.701Z,16.73
2022-11-21T07:36:37.362Z,12.75
2022-11-21T07:37:19.020Z,7.72
2022-11-21T07:38:00.920Z,10.50
2022-11-21T07:38:42.676Z,11.48
2022-11-21T07:39:24.356Z,12.10
2022-11-21T07:40:06.620Z,10.52
2022-11-21T07:40:48.324Z,10.93
2022-11-21T07:41:30.187Z,8.80
2022-11-21T07:42:11.840Z,9.00
2022-11-21T07:42:53.596Z,8.80
2022-11-21T07:43:35.379Z,10.07
2022-11-21T07:44:17.038Z,8.90
2022-11-21T07:44:58.710Z,10.30
2022-11-21T07:45:40.367Z,10.95
2022-11-21T07:46:22.008Z,11.48
2022-11-21T07:47:03.731Z,10.90
2022-11-21T07:47:45.476Z,8.70
2022-11-21T07:48:27.186Z,8.52
2022-11-21T07:49:08.825Z,10.93
2022-11-21T07:49:50.517Z,11.20
2022-11-21T07:50:32.281Z,11.77
2022-11-21T07:51:13.961Z,9.10
2022-11-21T07:51:55.638Z,8.23
2022-11-21T07:52:38.020Z,13.25
2022-11-21T07:53:19.707Z,12.30
2022-11-21T07:54:01.391Z,9.93
2022-11-21T07:54:43.040Z,11.18
2022-11-21T07:55:25.062Z,10.10
2022-11-21T07:56:09.450Z,11.93
2022-11-21T07:56:51.097Z,10.77
2022-11-21T07:57:33.148Z,11.57
2022-11-21T07:58:16.784Z,15.00
2022-11-21T07:58:58.518Z,11.90
2022-11-21T07:59:40.245Z,13.13
2022-11-21T08:00:21.952Z,9.02
2022-11-21T08:01:05.590Z,13.32
2022-11-21T08:01:47.293Z,11.55
2022-11-21T08:02:29.172Z,8.27
2022-11-21T08:03:12.644Z,10.75
2022-11-21T08:03:54.368Z,11.65
2022-11-21T08:04:36.536Z,10.73
2022-11-21T08:05:18.189Z,11.25
2022-11-21T08:06:03.889Z,11.32
2022-11-21T08:06:45.673Z,12.45
2022-11-21T08:07:27.371Z,12.65
2022-11-21T08:08:10.656Z,10.45
2022-11-21T08:08:55.758Z,10.35
2022-11-21T08:09:39.886Z,10.45
2022-11-21T08:10:21.676Z,12.38
2022-11-21T08:11:07.573Z,11.20
2022-11-21T08:11:49.310Z,10.40
2022-11-21T08:12:33.053Z,8.77
2022-11-21T08:13:14.883Z,9.15
2022-11-21T08:13:58.295Z,13.60
2022-11-21T08:14:40.344Z,10.57
2022-11-21T08:15:22.016Z,10.65
2022-11-21T08:16:04.627Z,8.02
2022-11-21T08:16:46.555Z,13.65
2022-11-21T08:17:28.316Z,11.50
2022-11-21T08:18:20.347Z,11.90
2022-11-21T08:19:02.246Z,8.82
2022-11-21T08:19:43.922Z,11.80
2022-11-21T08:20:25.982Z,11.60
2022-11-21T08:21:07.781Z,13.82
2022-11-21T08:21:49.545Z,10.82
2022-11-21T08:22:31.204Z,14.65
2022-11-21T08:23:12.859Z,11.20
2022-11-21T08:23:55.308Z,9.65
2022-11-21T08:24:36.969Z,10.82
2022-11-21T08:25:18.643Z,9.00
2022-11-21T08:26:00.478Z,10.40
2022-11-21T08:26:42.244Z,10.45
2022-11-21T08:27:24.474Z,10.60
2022-11-21T08:28:07.563Z,9.73
2022-11-21T08:28:49.289Z,10.30
2022-11-21T08:29:30.932Z,9.90
2022-11-21T08:30:13.253Z,9.40
2022-11-21T08:30:55.047Z,12.77
2022-11-21T08:31:37.677Z,8.65
2022-11-21T08:32:19.415Z,8.70
2022-11-21T08:33:01.664Z,11.38
2022-11-21T08:33:43.354Z,10.40
2022-11-21T08:34:25.002Z,8.90
2022-11-21T08:35:07.636Z,11.80
2022-11-21T08:35:49.325Z,11.77
2022-11-21T08:36:31.141Z,11.95
2022-11-21T08:37:12.817Z,11.85
2022-11-21T08:37:59.163Z,12.65
2022-11-21T08:38:40.840Z,10.98
2022-11-21T08:39:22.607Z,11.00
2022-11-21T08:40:04.663Z,14.45
2022-11-21T08:40:46.423Z,11.02
2022-11-21T08:41:46.880Z,11.95
2022-11-21T08:42:28.532Z,13.05
2022-11-21T08:43:10.324Z,13.77
2022-11-21T08:43:52.021Z,14.85
2022-11-21T08:44:34.854Z,13.48
2022-11-21T08:45:16.628Z,13.63
2022-11-21T08:45:58.301Z,11.73
2022-11-21T08:46:40.040Z,12.27
2022-11-21T08:47:21.751Z,12.13
2022-11-21T08:48:04.331Z,12.30
2022-11-21T08:48:46.033Z,12.77
2022-11-21T08:49:28.197Z,12.30
2022-11-21T08:50:09.999Z,10.32
2022-11-21T08:50:51.669Z,11.35
2022-11-21T08:51:33.548Z,12.15
2022-11-21T08:52:17.413Z,13.68
2022-11-21T08:53:01.275Z,11.88
2022-11-21T08:53:43.030Z,11.23
2022-11-21T08:54:25.341Z,10.82
2022-11-21T08:55:08.038Z,12.55
2022-11-21T08:55:49.824Z,12.48
2022-11-21T08:56:31.561Z,15.05
2022-11-21T08:57:13.237Z,12.23
2022-11-21T08:57:54.974Z,12.35
2022-11-21T08:58:36.657Z,14.70
2022-11-21T08:59:18.372Z,11.60
2022-11-21T09:00:00.028Z,11.63
2022-11-21T09:00:41.712Z,11.40
2022-11-21T09:01:23.719Z,15.45
2022-11-21T09:02:05.522Z,15.75
2022-11-21T09:02:47.224Z,10.98
2022-11-21T09:03:31.368Z,11.23
2022-11-21T09:04:13.437Z,11.13
2022-11-21T09:04:55.141Z,12.05
2022-11-21T09:05:36.884Z,12.30
2022-11-21T09:06:18.571Z,10.10
2022-11-21T09:07:00.760Z,10.02
2022-11-21T09:07:42.880Z,13.60
2022-11-21T09:08:24.747Z,13.40
2022-11-21T09:09:07.533Z,14.30
2022-11-21T09:09:49.224Z,14.23
2022-11-21T09:10:30.887Z,11.20
2022-11-21T09:11:12.609Z,13.00
2022-11-21T09:11:54.343Z,14.15
2022-11-21T09:12:36.033Z,11.50
2022-11-21T09:13:17.906Z,12.32
2022-11-21T09:14:18.056Z,12.10
2022-11-21T09:15:18.343Z,14.07
2022-11-21T09:16:20.671Z,13.40
2022-11-21T09:17:21.025Z,15.90
2022-11-21T09:18:03.310Z,11.85
2022-11-21T09:18:45.069Z,10.85